createdAt,value
2022-09-23T00:00:47.423Z,5.30
2022-09-23T00:05:39.914Z,5.10
2022-09-23T00:10:32.133Z,5.47
2022-09-23T00:15:26.237Z,4.87
2022-09-23T00:20:19.081Z,6.40
2022-09-23T00:25:12.283Z,5.87
2022-09-23T00:30:08.100Z,5.37
2022-09-23T00:35:00.567Z,5.00
2022-09-23T00:39:52.766Z,5.70
2022-09-23T00:44:47.484Z,5.53
2022-09-23T00:49:40.624Z,4.87
2022-09-23T00:54:33.102Z,4.93
2022-09-23T00:59:26.319Z,4.93
2022-09-23T01:04:19.478Z,6.13
2022-09-23T01:09:11.730Z,4.27
2022-09-23T01:14:07.235Z,4.83
2022-09-23T01:19:36.542Z,4.50
2022-09-23T01:24:48.298Z,4.77
2022-09-23T01:30:09.835Z,4.63
2022-09-23T01:35:08.595Z,12.70
2022-09-23T01:40:12.931Z,10.70
2022-09-23T01:45:14.130Z,6.37
2022-09-23T01:50:29.465Z,5.00
2022-09-23T01:55:31.184Z,4.83
2022-09-23T02:00:24.787Z,5.20
2022-09-23T02:05:26.751Z,5.90
2022-09-23T02:10:25.677Z,6.03
2022-09-23T02:15:23.659Z,5.40
2022-09-23T02:20:22.361Z,6.07
2022-09-23T02:25:16.440Z,5.37
2022-09-23T02:30:15.621Z,5.10
2022-09-23T02:35:19.858Z,5.90
2022-09-23T02:40:23.822Z,7.17
2022-09-23T02:45:16.702Z,6.80
2022-09-23T02:50:09.661Z,6.10
2022-09-23T02:55:01.991Z,5.93
2022-09-23T02:59:54.376Z,5.87
2022-09-23T03:05:12.875Z,6.47
2022-09-23T03:10:21.147Z,5.30
2022-09-23T03:15:38.091Z,6.33
2022-09-23T03:20:59.339Z,5.90
2022-09-23T03:25:55.120Z,6.17
2022-09-23T03:30:48.053Z,6.73
2022-09-23T03:36:15.988Z,6.57
2022-09-23T03:41:12.282Z,6.57
2022-09-23T03:46:05.500Z,9.90
2022-09-23T03:50:57.798Z,8.10
2022-09-23T03:55:49.984Z,6.40
2022-09-23T04:00:42.547Z,9.03
2022-09-23T04:05:36.044Z,8.80
2022-09-23T04:10:28.341Z,12.60
2022-09-23T04:15:20.840Z,9.53
2022-09-23T04:20:13.023Z,14.47
2022-09-23T04:25:05.902Z,11.50
2022-09-23T04:29:57.988Z,12.97
2022-09-23T04:34:50.319Z,11.73
2022-09-23T04:39:43.521Z,9.10
2022-09-23T04:44:36.905Z,10.97
2022-09-23T04:49:33.809Z,25.00
2022-09-23T04:54:26.066Z,13.73
2022-09-23T04:59:18.284Z,9.03
2022-09-23T05:04:14.153Z,11.97
2022-09-23T05:09:08.295Z,9.37
2022-09-23T05:14:01.266Z,10.93
2022-09-23T05:18:54.244Z,8.93
2022-09-23T05:23:53.618Z,9.50
2022-09-23T05:28:45.959Z,10.50
2022-09-23T05:33:39.326Z,9.20
2022-09-23T05:38:34.877Z,12.50
2022-09-23T05:43:29.150Z,13.80
2022-09-23T05:48:21.354Z,11.03
2022-09-23T05:53:13.461Z,12.67
2022-09-23T05:58:05.643Z,7.90
2022-09-23T06:02:57.879Z,17.23
2022-09-23T06:07:50.471Z,21.87
2022-09-23T06:12:45.174Z,15.33
2022-09-23T06:17:40.504Z,9.87
2022-09-23T06:22:35.641Z,9.50
2022-09-23T06:27:32.139Z,10.07
2022-09-23T06:32:24.991Z,8.97
2022-09-23T06:37:20.482Z,11.80
2022-09-23T06:42:13.836Z,8.07
2022-09-23T06:47:06.161Z,5.00
2022-09-23T06:51:58.611Z,8.53
2022-09-23T06:56:51.763Z,6.87
2022-09-23T07:01:45.806Z,7.27
2022-09-23T07:06:40.063Z,8.97
2022-09-23T07:11:34.656Z,4.90
2022-09-23T07:16:30.023Z,4.03
2022-09-23T07:21:22.662Z,9.63
2022-09-23T07:26:16.565Z,10.43
2022-09-23T07:31:14.548Z,6.20
2022-09-23T07:36:18.434Z,4.33
2022-09-23T07:41:12.597Z,4.73
2022-09-23T07:46:11.345Z,5.43
2022-09-23T07:51:17.771Z,3.83
2022-09-23T07:56:11.678Z,4.90
2022-09-23T08:01:11.371Z,6.37
2022-09-23T08:06:13.839Z,5.03
2022-09-23T08:11:10.488Z,4.47
2022-09-23T08:16:03.543Z,3.83
2022-09-23T08:20:55.934Z,3.80
2022-09-23T08:25:49.105Z,3.13
2022-09-23T08:30:41.615Z,3.20
2022-09-23T08:35:34.147Z,3.87
2022-09-23T08:40:26.511Z,4.50
2022-09-23T08:45:25.880Z,4.50
2022-09-23T08:50:22.108Z,4.47
2022-09-23T08:55:15.328Z,4.07
2022-09-23T09:00:14.655Z,5.50
2022-09-23T09:05:10.607Z,3.40
2022-09-23T09:10:21.598Z,2.67
2022-09-23T09:15:27.542Z,2.50
2022-09-23T09:20:57.599Z,2.00
2022-09-23T09:25:55.545Z,2.73
2022-09-23T09:31:00.177Z,3.23
2022-09-23T09:36:19.333Z,7.00
2022-09-23T09:41:26.724Z,4.27
2022-09-23T09:46:50.137Z,1.40
2022-09-23T09:51:42.693Z,1.50
2022-09-23T09:56:36.844Z,1.63
2022-09-23T10:01:31.898Z,1.30
2022-09-23T10:06:30.168Z,1.02
2022-09-23T10:11:28.118Z,0.73
2022-09-23T10:16:21.962Z,4.57
2022-09-23T10:21:17.977Z,1.50
2022-09-23T10:26:12.775Z,1.00
2022-09-23T10:31:12.080Z,1.30
2022-09-23T10:36:07.355Z,2.42
2022-09-23T10:41:18.142Z,1.23
2022-09-23T10:46:40.076Z,1.13
2022-09-23T10:51:57.339Z,1.05
2022-09-23T10:57:38.302Z,1.30
2022-09-23T11:03:07.055Z,1.00
2022-09-23T11:08:18.513Z,0.73
2022-09-23T11:13:29.544Z,1.40
2022-09-23T11:18:49.968Z,1.77
2022-09-23T11:24:16.314Z,1.67
2022-09-23T11:29:36.620Z,1.10
2022-09-23T11:34:59.852Z,1.43
2022-09-23T11:40:00.923Z,3.13
2022-09-23T11:45:02.420Z,1.27
2022-09-23T11:50:11.059Z,0.80
2022-09-23T11:55:25.482Z,1.13
2022-09-23T12:00:34.585Z,3.57
2022-09-23T12:05:40.176Z,3.10
2022-09-23T12:10:53.877Z,1.47
2022-09-23T12:16:21.994Z,1.23
2022-09-23T12:21:49.854Z,2.43
2022-09-23T12:26:45.073Z,1.03
2022-09-23T12:31:41.119Z,1.43
2022-09-23T12:36:36.846Z,1.00
2022-09-23T12:41:35.435Z,1.67
2022-09-23T12:46:28.431Z,2.13
2022-09-23T12:51:21.541Z,2.20
2022-09-23T12:56:18.834Z,1.57
2022-09-23T13:01:25.570Z,2.50
2022-09-23T13:06:44.083Z,1.73
2022-09-23T13:11:40.466Z,1.40
2022-09-23T13:16:43.691Z,11.90
2022-09-23T13:21:45.414Z,1.10
2022-09-23T13:26:39.444Z,4.67
2022-09-23T13:31:31.960Z,1.60
2022-09-23T13:36:24.270Z,2.30
2022-09-23T13:41:22.407Z,21.73
2022-09-23T13:46:22.090Z,2.07
2022-09-23T13:51:36.596Z,1.17
2022-09-23T13:56:31.887Z,0.80
2022-09-23T14:01:31.240Z,3.53
2022-09-23T14:06:23.860Z,2.33
2022-09-23T14:11:18.244Z,1.13
2022-09-23T14:16:15.133Z,3.13
2022-09-23T14:21:37.246Z,4.43
2022-09-23T14:26:29.709Z,3.53
2022-09-23T14:31:25.617Z,1.30
2022-09-23T14:36:37.721Z,1.27
2022-09-23T14:41:36.186Z,1.70
2022-09-23T14:51:54.617Z,1.93
2022-09-23T14:56:47.991Z,1.67
2022-09-23T15:01:40.517Z,1.50
2022-09-23T15:06:36.085Z,2.60
2022-09-23T15:11:30.834Z,2.27
2022-09-23T15:16:28.045Z,2.03
2022-09-23T15:21:22.248Z,1.40
2022-09-23T15:26:16.922Z,1.53
2022-09-23T15:31:13.773Z,2.00
2022-09-23T15:36:06.808Z,1.60
2022-09-23T15:40:59.242Z,1.80
2022-09-23T15:45:58.618Z,1.80
2022-09-23T15:50:52.625Z,5.03
2022-09-23T15:55:46.791Z,2.20
2022-09-23T16:00:40.926Z,3.67
2022-09-23T16:05:39.338Z,2.07
2022-09-23T16:10:34.095Z,2.03
2022-09-23T16:15:29.014Z,2.50
2022-09-23T16:20:22.449Z,3.00
2022-09-23T16:25:15.779Z,3.67
2022-09-23T16:30:08.968Z,5.70
2022-09-23T16:35:01.416Z,7.27
2022-09-23T16:39:54.238Z,4.43
2022-09-23T16:44:46.716Z,4.27
2022-09-23T16:49:39.142Z,4.03
2022-09-23T16:54:32.056Z,3.50
2022-09-23T16:59:44.472Z,4.33
2022-09-23T17:04:37.826Z,6.67
2022-09-23T17:09:33.555Z,4.37
2022-09-23T17:14:26.237Z,5.70
2022-09-23T17:19:19.229Z,5.50
2022-09-23T17:24:14.651Z,5.07
2022-09-23T17:29:07.782Z,6.83
2022-09-23T17:34:01.232Z,5.60
2022-09-23T17:38:53.992Z,8.10
2022-09-23T17:43:49.290Z,6.80
2022-09-23T17:48:46.581Z,8.37
2022-09-23T17:53:43.041Z,6.77
2022-09-23T17:58:38.121Z,7.77
2022-09-23T18:03:31.983Z,9.07
2022-09-23T18:08:26.415Z,21.77
2022-09-23T18:13:18.977Z,49.47
2022-09-23T18:18:12.994Z,38.93
2022-09-23T18:23:06.766Z,38.00
2022-09-23T18:27:59.627Z,24.60
2022-09-23T18:32:54.180Z,25.03
2022-09-23T18:37:46.713Z,32.60
2022-09-23T18:43:45.130Z,20.23
2022-09-23T18:49:55.071Z,7.47
2022-09-23T18:56:02.713Z,6.90
2022-09-23T19:02:11.011Z,7.00
2022-09-23T19:08:18.790Z,7.23
2022-09-23T19:14:25.855Z,10.77
2022-09-23T19:20:33.136Z,7.30
2022-09-23T19:26:42.534Z,4.77
2022-09-23T19:32:50.899Z,6.50
2022-09-23T19:38:58.038Z,4.77
2022-09-23T19:45:05.531Z,6.93
2022-09-23T19:51:17.505Z,8.47
2022-09-23T19:57:24.865Z,8.23
2022-09-23T20:03:51.008Z,6.47
2022-09-23T20:09:59.322Z,6.63
2022-09-23T20:16:07.200Z,9.10
2022-09-23T20:22:15.725Z,10.80
2022-09-23T20:28:23.214Z,9.60
2022-09-23T20:34:30.413Z,7.63
2022-09-23T20:40:37.708Z,9.90
2022-09-23T20:45:58.430Z,5.90
2022-09-23T20:50:51.440Z,5.47
2022-09-23T20:56:01.232Z,6.30
2022-09-23T21:00:55.918Z,7.87
2022-09-23T21:05:48.392Z,11.50
2022-09-23T21:10:41.652Z,12.07
2022-09-23T21:15:37.072Z,13.07
2022-09-23T21:20:34.883Z,12.37
2022-09-23T21:25:32.110Z,12.03
2022-09-23T21:30:27.342Z,12.03
2022-09-23T21:35:27.639Z,10.70
2022-09-23T21:40:38.434Z,10.80
2022-09-23T21:45:31.902Z,9.37
2022-09-23T21:50:30.152Z,7.70
2022-09-23T21:55:22.409Z,8.10
2022-09-23T22:00:15.199Z,8.37
2022-09-23T22:05:07.756Z,8.97
2022-09-23T22:10:00.070Z,8.07
2022-09-23T22:14:54.272Z,7.63
2022-09-23T22:19:47.229Z,6.60
2022-09-23T22:24:44.474Z,6.80
2022-09-23T22:29:55.428Z,6.50
2022-09-23T22:34:52.246Z,7.30
2022-09-23T22:39:45.637Z,7.17
2022-09-23T22:44:40.204Z,5.77
2022-09-23T22:49:32.713Z,6.00
2022-09-23T22:54:33.661Z,6.03
2022-09-23T22:59:26.490Z,5.80
2022-09-23T23:04:19.067Z,5.87
2022-09-23T23:09:19.355Z,6.57
2022-09-23T23:14:15.155Z,7.10
2022-09-23T23:19:13.661Z,6.80
2022-09-23T23:24:07.053Z,5.23
2022-09-23T23:29:02.872Z,7.10
2022-09-23T23:33:55.966Z,5.70
2022-09-23T23:38:51.681Z,6.07
2022-09-23T23:43:46.332Z,6.10
2022-09-23T23:48:40.017Z,5.37
2022-09-23T23:53:35.207Z,5.20
2022-09-23T23:58:29.845Z,5.47
